Time;durP1;ratioP1;P1;durP2;ratioP2;P2;SDS_P1;SDS_P2;PMS_P1;PMS_P2;Temp;Humidity;BMP_temperature;BMP_pressure;BME280_temperature;BME280_humidity;BME280_pressure;Samples;Min_cycle;Max_cycle;Signal;HPM_P1;HPM_P2
2023/06/11 00:01:50;;;;;;;7.35;2.70;;;;;;;25.89;25.90;101602.84;5034768;27;96999;-63
2023/06/11 00:04:19;;;;;;;4.15;2.42;;;;;;;25.91;25.95;101609.84;5021791;27;99056;-63
2023/06/11 00:06:45;;;;;;;11.68;2.35;;;;;;;25.76;26.28;101606.63;5022539;27;99208;-64
2023/06/11 00:09:12;;;;;;;3.78;2.58;;;;;;;25.83;26.25;101609.66;5021801;27;96929;-62
2023/06/11 00:11:41;;;;;;;9.60;2.72;;;;;;;25.67;26.52;101610.09;5024746;27;98973;-64
2023/06/11 00:14:08;;;;;;;5.30;2.90;;;;;;;25.59;26.74;101614.47;5023996;27;102105;-63
2023/06/11 00:16:34;;;;;;;7.03;2.38;;;;;;;25.63;26.68;101610.50;5025786;27;99066;-63
2023/06/11 00:19:02;;;;;;;5.47;2.45;;;;;;;25.39;26.99;101618.81;5024439;27;98722;-63
2023/06/11 00:21:29;;;;;;;7.90;3.17;;;;;;;25.53;26.72;101613.13;5028254;27;97656;-63
2023/06/11 00:23:55;;;;;;;3.40;2.83;;;;;;;25.40;26.83;101615.13;5036766;27;98185;-64
2023/06/11 00:26:23;;;;;;;4.57;2.40;;;;;;;25.35;26.98;101611.94;5024428;27;99835;-63
2023/06/11 00:28:50;;;;;;;6.10;2.72;;;;;;;25.26;26.90;101612.72;5024415;27;98877;-63
2023/06/11 00:31:17;;;;;;;3.38;2.40;;;;;;;25.33;26.97;101608.53;5024015;27;97881;-63
2023/06/11 00:33:44;;;;;;;4.50;2.63;;;;;;;25.22;27.31;101611.25;5022234;27;99050;-64
2023/06/11 00:36:11;;;;;;;9.07;2.35;;;;;;;25.19;27.17;101620.50;5024183;27;100608;-63
2023/06/11 00:38:37;;;;;;;11.93;3.25;;;;;;;25.24;27.15;101610.13;5023567;27;98549;-62
2023/06/11 00:41:04;;;;;;;7.38;2.63;;;;;;;25.18;27.11;101612.50;5023586;27;97593;-63
2023/06/11 00:43:31;;;;;;;7.75;2.97;;;;;;;25.24;27.49;101614.69;5029168;27;99285;-63
2023/06/11 00:46:02;;;;;;;4.80;2.40;;;;;;;25.29;27.06;101618.72;5036100;27;97550;-62
2023/06/11 00:48:28;;;;;;;6.90;2.53;;;;;;;25.28;27.34;101614.28;5022751;27;97247;-64
2023/06/11 00:50:55;;;;;;;7.63;2.40;;;;;;;25.32;27.36;101610.38;5027994;27;97690;-63
2023/06/11 00:53:21;;;;;;;10.95;2.90;;;;;;;25.24;27.55;101611.97;5020476;27;99047;-62
2023/06/11 00:55:48;;;;;;;3.78;2.38;;;;;;;25.17;27.36;101606.22;5022001;27;99225;-63
2023/06/11 00:58:17;;;;;;;6.05;2.30;;;;;;;24.87;28.03;101609.59;5022158;27;97984;-63
2023/06/11 01:00:46;;;;;;;6.03;2.25;;;;;;;24.96;27.82;101613.41;5026480;27;98627;-64
2023/06/11 01:03:17;;;;;;;5.18;2.38;;;;;;;24.96;27.97;101616.97;5022849;27;98862;-62
2023/06/11 01:05:49;;;;;;;11.07;2.55;;;;;;;24.93;27.59;101617.25;5030863;27;99261;-63
2023/06/11 01:08:17;;;;;;;5.90;2.25;;;;;;;24.96;28.02;101614.25;5024321;27;97705;-63
2023/06/11 01:10:44;;;;;;;6.00;2.20;;;;;;;24.77;27.82;101608.63;5021313;27;97301;-63
2023/06/11 01:13:11;;;;;;;5.40;2.47;;;;;;;24.61;28.29;101613.56;5036300;27;99904;-63
2023/06/11 01:15:37;;;;;;;5.45;2.00;;;;;;;24.77;27.92;101613.16;5033215;27;97833;-62
2023/06/11 01:18:10;;;;;;;6.95;2.03;;;;;;;24.77;27.91;101619.44;5019600;27;97838;-64
2023/06/11 01:20:43;;;;;;;8.40;2.58;;;;;;;24.80;28.13;101621.91;5023095;27;98419;-63
2023/06/11 01:23:33;;;;;;;6.35;2.05;;;;;;;24.69;28.96;101627.28;5022004;27;99195;-61
2023/06/11 01:26:18;;;;;;;7.57;2.53;;;;;;;24.70;28.32;101628.16;5020302;27;98754;-62
2023/06/11 01:28:47;;;;;;;3.55;2.13;;;;;;;24.76;28.14;101630.34;5018944;27;97657;-62
2023/06/11 01:31:16;;;;;;;9.77;3.20;;;;;;;24.71;28.16;101625.34;5019645;27;97868;-63
2023/06/11 01:33:44;;;;;;;10.95;2.50;;;;;;;24.66;28.30;101624.84;5027166;27;101364;-61
2023/06/11 01:36:11;;;;;;;8.15;2.33;;;;;;;24.62;28.04;101626.94;5032811;27;101027;-62
2023/06/11 01:38:42;;;;;;;3.70;2.20;;;;;;;24.58;28.58;101619.19;5019186;27;99323;-63
2023/06/11 01:41:09;;;;;;;7.68;2.63;;;;;;;24.54;28.59;101625.84;5019587;27;97313;-62
2023/06/11 01:43:38;;;;;;;4.85;2.55;;;;;;;24.63;28.36;101633.19;5022240;27;101871;-62
2023/06/11 01:46:08;;;;;;;6.55;2.80;;;;;;;24.57;28.16;101636.38;5032412;27;98806;-61
2023/06/11 01:48:35;;;;;;;3.40;2.25;;;;;;;24.56;28.26;101630.13;5030175;27;96910;-63
2023/06/11 01:51:02;;;;;;;10.20;2.40;;;;;;;24.32;28.79;101634.78;5037845;27;97956;-63
2023/06/11 01:53:28;;;;;;;6.20;2.38;;;;;;;24.30;29.07;101634.03;5022561;27;99517;-63
2023/06/11 01:55:56;;;;;;;10.10;2.20;;;;;;;24.24;29.09;101631.81;5019870;27;99190;-62
2023/06/11 01:58:22;;;;;;;8.70;2.60;;;;;;;24.18;29.26;101630.44;5022869;27;98659;-62
2023/06/11 02:00:49;;;;;;;7.60;2.42;;;;;;;24.21;29.21;101629.38;5022107;27;98886;-62
2023/06/11 02:03:16;;;;;;;5.25;2.20;;;;;;;24.15;29.09;101635.25;5018650;27;98894;-65
2023/06/11 02:05:43;;;;;;;4.22;2.78;;;;;;;24.31;28.78;101632.19;5026088;27;98869;-62
2023/06/11 02:08:10;;;;;;;5.05;2.50;;;;;;;24.21;29.08;101632.94;5026421;27;98587;-63
2023/06/11 02:10:36;;;;;;;5.85;2.35;;;;;;;24.16;29.12;101629.69;5017545;27;98641;-65
2023/06/11 02:13:03;;;;;;;11.85;2.38;;;;;;;24.06;29.36;101631.41;5019488;27;99212;-63
2023/06/11 02:15:29;;;;;;;4.90;2.03;;;;;;;24.00;29.61;101628.31;5018901;27;99117;-63
2023/06/11 02:17:55;;;;;;;4.07;2.15;;;;;;;23.99;29.26;101637.41;5016894;27;101473;-64
2023/06/11 02:20:23;;;;;;;5.65;2.40;;;;;;;23.92;29.46;101639.72;5022991;27;98509;-63
2023/06/11 02:22:50;;;;;;;7.07;2.17;;;;;;;23.85;29.37;101641.16;5019084;27;99261;-63
2023/06/11 02:25:16;;;;;;;7.50;2.08;;;;;;;23.96;29.42;101643.88;5018139;27;98950;-64
2023/06/11 02:27:42;;;;;;;3.08;2.15;;;;;;;23.87;29.56;101650.00;5019242;27;97796;-63
2023/06/11 02:30:10;;;;;;;5.82;2.03;;;;;;;24.04;29.34;101640.59;5018881;27;97543;-63
2023/06/11 02:32:36;;;;;;;4.82;1.95;;;;;;;24.03;29.11;101649.66;5027732;27;99292;-63
2023/06/11 02:35:02;;;;;;;4.80;2.20;;;;;;;23.93;29.65;101644.13;5023145;27;98890;-64
2023/06/11 02:37:30;;;;;;;4.47;2.15;;;;;;;23.80;29.81;101649.63;5026771;27;96869;-62
2023/06/11 02:39:56;;;;;;;3.95;2.50;;;;;;;24.03;29.60;101649.66;5024805;27;100628;-62
2023/06/11 02:42:23;;;;;;;6.07;2.00;;;;;;;23.94;29.84;101645.00;5022801;27;99239;-61
2023/06/11 02:44:49;;;;;;;6.07;2.38;;;;;;;23.80;29.85;101646.91;5024652;27;98843;-61
2023/06/11 02:47:16;;;;;;;2.85;1.98;;;;;;;23.95;29.86;101641.31;5021281;27;98107;-63
2023/06/11 02:49:42;;;;;;;3.38;2.20;;;;;;;23.88;29.76;101649.03;5023200;27;97900;-62
2023/06/11 02:52:09;;;;;;;4.65;2.17;;;;;;;23.69;30.06;101648.72;5018587;27;99288;-62
2023/06/11 02:54:37;;;;;;;10.75;1.98;;;;;;;23.83;30.01;101652.06;5011243;27;98761;-61
2023/06/11 02:57:05;;;;;;;2.92;2.20;;;;;;;23.66;29.92;101657.91;5024646;27;97907;-61
2023/06/11 02:59:31;;;;;;;4.78;2.20;;;;;;;23.73;29.93;101655.59;5019018;27;98432;-62
2023/06/11 03:01:57;;;;;;;5.72;2.30;;;;;;;23.67;30.05;101654.22;5012606;27;100131;-62
2023/06/11 03:04:24;;;;;;;6.80;2.28;;;;;;;23.44;30.16;101658.63;5017353;27;98893;-63
2023/06/11 03:06:50;;;;;;;3.35;2.05;;;;;;;23.52;30.19;101663.47;5017279;27;97424;-62
2023/06/11 03:09:17;;;;;;;9.07;2.53;;;;;;;23.52;30.23;101649.13;5018735;27;97686;-62
2023/06/11 03:11:45;;;;;;;5.45;2.10;;;;;;;23.34;30.41;101656.75;5023349;27;99489;-62
2023/06/11 03:14:11;;;;;;;4.07;2.35;;;;;;;23.43;30.44;101658.75;5034317;27;99193;-62
2023/06/11 03:16:37;;;;;;;3.83;1.95;;;;;;;23.29;30.64;101657.09;5034520;27;100835;-62
2023/06/11 03:19:04;;;;;;;5.00;1.95;;;;;;;23.38;30.37;101663.63;5017737;27;98825;-62
2023/06/11 03:21:31;;;;;;;3.13;2.05;;;;;;;23.35;30.39;101662.03;5017713;27;99095;-63
2023/06/11 03:23:58;;;;;;;4.13;2.40;;;;;;;23.27;30.73;101661.72;5022598;27;99109;-63
2023/06/11 03:26:25;;;;;;;5.47;1.88;;;;;;;23.48;30.28;101674.63;5026466;27;98921;-63
2023/06/11 03:28:53;;;;;;;5.97;2.30;;;;;;;23.33;30.50;101666.66;5018424;27;98696;-63
2023/06/11 03:31:19;;;;;;;3.92;2.25;;;;;;;23.30;30.56;101671.44;5017133;27;99205;-67
2023/06/11 03:33:46;;;;;;;2.90;2.05;;;;;;;23.24;30.68;101667.34;5022743;27;98967;-63
2023/06/11 03:36:12;;;;;;;4.35;2.28;;;;;;;23.20;30.49;101675.78;5018591;27;97608;-62
2023/06/11 03:38:39;;;;;;;8.05;2.55;;;;;;;23.15;30.68;101668.03;5021227;27;97858;-62
2023/06/11 03:41:05;;;;;;;4.15;1.60;;;;;;;23.24;30.65;101672.72;5019445;27;99072;-62
2023/06/11 03:43:31;;;;;;;13.25;2.08;;;;;;;23.16;31.00;101669.75;5016359;27;98770;-62
2023/06/11 03:45:59;;;;;;;3.85;1.63;;;;;;;23.06;31.03;101668.69;5020671;27;97511;-62
2023/06/11 03:48:25;;;;;;;6.53;2.40;;;;;;;23.05;31.00;101667.84;5016524;27;97323;-62
2023/06/11 03:50:52;;;;;;;8.98;2.10;;;;;;;23.30;30.45;101674.97;5028809;27;100950;-61
2023/06/11 03:53:20;;;;;;;11.20;2.13;;;;;;;23.23;30.95;101671.03;5022401;27;98527;-62
2023/06/11 03:55:46;;;;;;;2.80;2.15;;;;;;;23.26;30.94;101676.19;5017623;27;98668;-62
2023/06/11 03:58:12;;;;;;;6.28;2.25;;;;;;;23.28;31.08;101674.25;5019504;27;98823;-61
2023/06/11 04:00:39;;;;;;;3.63;2.10;;;;;;;23.48;31.06;101680.00;5016433;27;98917;-62
2023/06/11 04:03:07;;;;;;;2.92;1.88;;;;;;;23.50;31.00;101680.78;5018655;27;99160;-62
2023/06/11 04:05:35;;;;;;;4.72;2.35;;;;;;;23.54;30.92;101675.03;5012537;27;97618;-64
2023/06/11 04:08:02;;;;;;;8.27;2.17;;;;;;;23.67;30.39;101681.22;5020038;27;97031;-63
2023/06/11 04:10:28;;;;;;;6.28;2.08;;;;;;;23.64;30.76;101680.56;5017774;27;99868;-63
2023/06/11 04:12:55;;;;;;;4.75;2.00;;;;;;;23.68;30.36;101682.09;5026991;27;99845;-63
2023/06/11 04:15:22;;;;;;;6.35;2.35;;;;;;;23.53;30.72;101683.22;5021601;27;97128;-62
2023/06/11 04:17:48;;;;;;;4.85;1.70;;;;;;;23.64;30.64;101694.91;5029701;27;96863;-63
2023/06/11 04:20:16;;;;;;;5.55;1.90;;;;;;;23.62;30.75;101693.34;5030651;27;99356;-62
2023/06/11 04:22:42;;;;;;;8.25;2.10;;;;;;;23.72;30.23;101695.22;5017345;27;98841;-63
2023/06/11 04:25:11;;;;;;;5.03;2.03;;;;;;;23.81;30.12;101689.13;5023042;27;97533;-63
2023/06/11 04:27:38;;;;;;;9.32;2.22;;;;;;;23.70;30.15;101694.47;5017974;27;97112;-62
2023/06/11 04:30:06;;;;;;;12.38;2.03;;;;;;;23.87;30.22;101698.59;5016626;27;99845;-62
2023/06/11 04:32:36;;;;;;;8.63;2.00;;;;;;;23.90;29.86;101701.03;5017941;27;99195;-66
2023/06/11 04:35:03;;;;;;;6.28;2.30;;;;;;;23.76;30.16;101701.25;5016736;27;97093;-63
2023/06/11 04:37:38;;;;;;;8.55;1.90;;;;;;;23.86;30.11;101699.56;5016921;27;97135;-62
2023/06/11 04:40:10;;;;;;;6.88;2.10;;;;;;;23.95;29.89;101696.19;5015409;27;99321;-64
2023/06/11 04:42:40;;;;;;;4.53;2.00;;;;;;;24.04;30.05;101700.84;5017848;27;99247;-63
2023/06/11 04:45:07;;;;;;;4.72;2.10;;;;;;;24.02;30.10;101707.38;5023233;27;98613;-61
2023/06/11 04:47:34;;;;;;;9.43;2.30;;;;;;;24.07;29.88;101700.63;5022796;27;96965;-63
2023/06/11 04:50:03;;;;;;;5.05;2.03;;;;;;;24.36;29.72;101701.06;5023304;27;99043;-62
2023/06/11 04:52:32;;;;;;;5.45;2.40;;;;;;;24.33;29.59;101695.94;5027339;27;99173;-62
2023/06/11 04:55:00;;;;;;;6.60;2.08;;;;;;;24.52;29.25;101693.50;5023655;27;97713;-63
2023/06/11 04:57:26;;;;;;;12.07;6.60;;;;;;;24.54;29.14;101698.78;5026293;27;99033;-62
2023/06/11 04:59:53;;;;;;;8.65;1.95;;;;;;;24.53;29.05;101702.47;5032868;27;99234;-63
2023/06/11 05:02:20;;;;;;;4.43;2.20;;;;;;;24.56;29.10;101700.38;5018866;27;98777;-63
2023/06/11 05:04:49;;;;;;;3.50;1.75;;;;;;;24.49;29.12;101700.97;5018959;27;96915;-63
2023/06/11 05:07:16;;;;;;;6.28;2.17;;;;;;;24.85;29.04;101705.31;5019024;27;99588;-63
2023/06/11 05:09:44;;;;;;;3.67;2.20;;;;;;;25.17;28.72;101698.19;5019141;27;98857;-62
2023/06/11 05:12:11;;;;;;;3.70;2.00;;;;;;;26.81;26.90;101688.66;5020717;27;101558;-63
2023/06/11 05:14:38;;;;;;;6.30;1.80;;;;;;;27.05;26.15;101691.03;5019931;27;96862;-63
2023/06/11 05:17:05;;;;;;;6.05;2.15;;;;;;;26.73;26.45;101700.19;5020423;27;97585;-62
2023/06/11 05:19:31;;;;;;;12.55;1.92;;;;;;;26.59;26.61;101700.53;5025946;27;98961;-63
2023/06/11 05:21:58;;;;;;;5.22;2.08;;;;;;;26.39;26.71;101702.28;5017434;27;99459;-62
2023/06/11 05:24:29;;;;;;;3.75;1.83;;;;;;;26.51;26.77;101703.06;5016456;27;98547;-62
2023/06/11 05:26:57;;;;;;;5.40;1.98;;;;;;;26.36;26.87;101697.13;5022772;27;98790;-62
2023/06/11 05:29:23;;;;;;;4.47;1.98;;;;;;;26.19;27.20;101705.81;5033931;27;99015;-62
2023/06/11 05:31:49;;;;;;;3.67;1.92;;;;;;;26.38;26.96;101695.16;5019120;27;99262;-63
2023/06/11 05:34:16;;;;;;;10.10;2.35;;;;;;;26.41;26.90;101700.28;5016828;27;97905;-63
2023/06/11 05:36:43;;;;;;;4.75;2.55;;;;;;;26.47;26.69;101701.59;5020070;27;97749;-63
2023/06/11 05:39:10;;;;;;;4.72;2.13;;;;;;;26.40;26.87;101695.88;5018216;27;99056;-64
2023/06/11 05:41:36;;;;;;;4.10;1.80;;;;;;;26.52;26.70;101697.50;5019464;27;101965;-62
2023/06/11 05:44:05;;;;;;;7.93;2.10;;;;;;;26.30;26.75;101710.34;5021934;27;97157;-62
2023/06/11 05:46:32;;;;;;;2.20;1.90;;;;;;;26.56;26.75;101704.38;5020168;27;97161;-63
2023/06/11 05:48:59;;;;;;;10.02;2.00;;;;;;;26.34;26.84;101706.38;5025457;27;100340;-63
2023/06/11 05:51:26;;;;;;;6.30;1.90;;;;;;;26.65;26.49;101707.28;5022635;27;97071;-62
2023/06/11 05:53:53;;;;;;;4.53;2.08;;;;;;;26.47;26.72;101705.19;5018018;27;98919;-63
2023/06/11 05:56:19;;;;;;;3.60;1.83;;;;;;;26.36;27.21;101698.97;5021024;27;98943;-63
2023/06/11 05:58:46;;;;;;;4.65;2.15;;;;;;;25.91;27.64;101715.47;5031638;27;99866;-63
2023/06/11 06:01:13;;;;;;;4.10;2.38;;;;;;;26.18;27.64;101712.25;5026605;27;98937;-67
2023/06/11 06:03:40;;;;;;;5.40;2.28;;;;;;;26.13;27.77;101709.91;5019266;27;98659;-66
2023/06/11 06:06:08;;;;;;;7.70;2.30;;;;;;;26.33;27.35;101710.06;5022708;27;97423;-63
2023/06/11 06:08:35;;;;;;;8.95;2.50;;;;;;;26.32;27.29;101714.63;5022678;27;99045;-62
2023/06/11 06:11:01;;;;;;;18.17;3.95;;;;;;;26.72;27.06;101711.16;5024890;27;97425;-63
2023/06/11 06:13:28;;;;;;;10.25;2.67;;;;;;;26.22;27.36;101710.97;5017986;27;97151;-63
2023/06/11 06:15:54;;;;;;;6.25;2.05;;;;;;;26.68;27.07;101709.72;5017751;27;96914;-64
2023/06/11 06:18:22;;;;;;;5.53;2.15;;;;;;;26.96;26.65;101707.16;5019657;27;101935;-62
2023/06/11 06:20:48;;;;;;;6.57;2.22;;;;;;;27.03;26.46;101707.47;5019865;27;98848;-62
2023/06/11 06:23:15;;;;;;;3.95;2.13;;;;;;;26.55;26.92;101705.38;5019091;27;97725;-62
2023/06/11 06:25:41;;;;;;;12.73;2.50;;;;;;;26.64;26.96;101708.28;5024201;27;96960;-62
2023/06/11 06:28:08;;;;;;;7.70;2.30;;;;;;;27.10;26.40;101710.50;5023929;27;99071;-63
2023/06/11 06:30:34;;;;;;;4.55;2.58;;;;;;;27.30;26.22;101706.84;5018396;27;98431;-67
2023/06/11 06:33:01;;;;;;;8.90;3.00;;;;;;;27.27;26.14;101702.53;5019414;27;97739;-66
2023/06/11 06:35:31;;;;;;;5.97;2.42;;;;;;;26.96;26.73;101711.75;5018855;27;98514;-67
2023/06/11 06:37:58;;;;;;;10.68;2.65;;;;;;;27.05;26.58;101716.31;5020454;27;98058;-67
2023/06/11 06:40:24;;;;;;;4.60;2.22;;;;;;;27.12;26.59;101709.34;5027258;27;99989;-67
2023/06/11 06:42:51;;;;;;;7.97;2.50;;;;;;;27.45;26.49;101710.00;5030893;27;97888;-68
2023/06/11 06:45:17;;;;;;;20.88;3.03;;;;;;;27.54;26.14;101701.06;5019301;27;98709;-68
2023/06/11 06:47:44;;;;;;;3.63;2.40;;;;;;;27.23;26.54;101709.25;5016553;27;99690;-68
2023/06/11 06:50:11;;;;;;;9.18;2.88;;;;;;;28.18;25.65;101706.78;5011763;27;98798;-67
2023/06/11 06:52:38;;;;;;;7.65;2.50;;;;;;;28.29;24.88;101708.50;5014342;27;100664;-68
2023/06/11 06:55:06;;;;;;;3.47;2.35;;;;;;;28.52;25.21;101701.72;5013072;27;97901;-68
2023/06/11 06:57:33;;;;;;;10.98;2.30;;;;;;;28.62;24.96;101707.97;5014477;27;99017;-67
2023/06/11 06:59:59;;;;;;;6.25;2.63;;;;;;;28.76;24.80;101707.53;5012817;27;98918;-67
2023/06/11 07:02:26;;;;;;;7.10;2.33;;;;;;;28.47;24.90;101698.59;5014405;27;98671;-68
2023/06/11 07:04:52;;;;;;;5.57;1.98;;;;;;;28.57;25.20;101703.97;5015506;27;97660;-67
2023/06/11 07:07:18;;;;;;;6.22;2.28;;;;;;;28.46;25.17;101702.31;5010962;27;97677;-68
2023/06/11 07:09:46;;;;;;;10.57;2.75;;;;;;;28.67;25.05;101708.41;5013738;27;98837;-69
2023/06/11 07:12:13;;;;;;;5.57;2.60;;;;;;;28.45;25.28;101704.16;5015388;27;96990;-67
2023/06/11 07:14:40;;;;;;;5.00;2.63;;;;;;;28.27;25.48;101705.94;5014581;27;98634;-67
2023/06/11 07:17:06;;;;;;;7.45;2.58;;;;;;;28.39;25.41;101710.19;5013256;27;99262;-67
2023/06/11 07:19:32;;;;;;;8.80;3.03;;;;;;;28.23;25.59;101706.34;5012962;27;99190;-66
2023/06/11 07:22:02;;;;;;;4.03;2.70;;;;;;;28.47;25.31;101710.31;5016593;27;96976;-68
2023/06/11 07:24:28;;;;;;;6.18;2.50;;;;;;;28.74;25.37;101709.56;5012673;27;98605;-68
2023/06/11 07:26:56;;;;;;;4.30;2.28;;;;;;;28.74;24.87;101709.56;5011883;27;99229;-68
2023/06/11 07:29:22;;;;;;;3.47;2.20;;;;;;;28.87;25.01;101709.22;5013974;27;98805;-68
2023/06/11 07:31:48;;;;;;;4.90;2.45;;;;;;;29.08;24.67;101708.97;5015227;27;97615;-67
2023/06/11 07:34:15;;;;;;;5.85;2.55;;;;;;;28.90;24.70;101712.47;5016450;27;98747;-67
2023/06/11 07:36:42;;;;;;;7.18;2.20;;;;;;;28.78;24.88;101708.25;5016969;27;99341;-67
2023/06/11 07:39:08;;;;;;;6.55;2.35;;;;;;;28.97;24.52;101717.31;5017731;27;100312;-69
2023/06/11 07:41:35;;;;;;;6.40;2.90;;;;;;;29.17;24.32;101710.78;5017549;27;98575;-67
2023/06/11 07:44:03;;;;;;;6.07;2.80;;;;;;;29.32;24.01;101707.41;5016763;27;97708;-66
2023/06/11 07:46:29;;;;;;;7.57;2.42;;;;;;;29.27;24.25;101715.16;5015315;27;98966;-67
2023/06/11 07:48:55;;;;;;;5.15;2.90;;;;;;;29.08;25.06;101714.41;5016012;27;98801;-66
2023/06/11 07:51:23;;;;;;;5.97;2.80;;;;;;;29.18;24.82;101713.34;5016331;27;98734;-66
2023/06/11 07:53:50;;;;;;;6.22;2.80;;;;;;;28.99;24.60;101709.88;5010996;27;99097;-66
2023/06/11 07:56:17;;;;;;;5.32;2.67;;;;;;;29.24;24.62;101715.47;5009485;27;99289;-66
2023/06/11 07:58:43;;;;;;;10.38;3.13;;;;;;;29.34;24.33;101704.56;5011601;27;101343;-67
2023/06/11 08:01:11;;;;;;;5.85;2.42;;;;;;;29.37;24.20;101703.38;5013558;27;99134;-66
2023/06/11 08:03:37;;;;;;;9.43;2.40;;;;;;;29.52;24.00;101707.28;5009848;27;98025;-67
2023/06/11 08:06:04;;;;;;;6.25;2.42;;;;;;;29.44;24.63;101709.91;5009839;27;98961;-67
2023/06/11 08:08:30;;;;;;;4.57;2.50;;;;;;;29.66;24.39;101699.44;5014345;27;98835;-66
2023/06/11 08:10:56;;;;;;;6.97;2.85;;;;;;;29.75;24.13;101713.97;5010768;27;98809;-66
2023/06/11 08:13:23;;;;;;;4.53;2.53;;;;;;;29.66;24.02;101706.75;5011969;27;96801;-67
2023/06/11 08:15:50;;;;;;;3.30;2.55;;;;;;;29.64;24.22;101698.75;5014018;27;98934;-65
2023/06/11 08:18:18;;;;;;;11.80;3.00;;;;;;;30.14;24.08;101706.34;5011795;27;98841;-63
2023/06/11 08:20:44;;;;;;;8.25;2.80;;;;;;;30.00;24.19;101709.63;5009931;27;97680;-63
2023/06/11 08:23:12;;;;;;;5.80;2.55;;;;;;;29.95;24.20;101698.38;5012680;27;97615;-63
2023/06/11 08:25:39;;;;;;;6.72;2.70;;;;;;;29.95;23.88;101701.94;5011212;27;98920;-63
2023/06/11 08:28:05;;;;;;;6.32;2.70;;;;;;;29.82;23.46;101697.88;5013474;27;98870;-63
2023/06/11 08:30:31;;;;;;;3.95;2.58;;;;;;;29.88;23.78;101708.13;5016465;27;98942;-62
2023/06/11 08:32:58;;;;;;;10.20;2.53;;;;;;;29.83;23.90;101700.44;5020196;27;98702;-63
2023/06/11 08:35:25;;;;;;;6.18;3.13;;;;;;;29.58;24.15;101702.09;5013404;27;98979;-63
2023/06/11 08:37:52;;;;;;;3.20;2.70;;;;;;;29.57;24.08;101704.97;5014953;27;98974;-63
2023/06/11 08:40:19;;;;;;;7.18;2.33;;;;;;;29.81;24.70;101698.88;5017529;27;96965;-65
2023/06/11 08:42:46;;;;;;;5.53;2.53;;;;;;;29.67;24.37;101695.69;5012672;27;99136;-64
2023/06/11 08:45:13;;;;;;;9.52;2.97;;;;;;;30.00;24.35;101706.91;5012553;27;99697;-63
2023/06/11 08:47:48;;;;;;;8.95;3.25;;;;;;;30.01;24.02;101703.19;5016190;27;98786;-63
2023/06/11 08:50:15;;;;;;;4.68;2.58;;;;;;;30.14;23.69;101692.72;5015218;27;98536;-63
2023/06/11 08:52:45;;;;;;;10.50;2.70;;;;;;;29.97;24.10;101701.78;5011633;27;97694;-63
2023/06/11 08:55:12;;;;;;;8.40;3.20;;;;;;;29.84;24.69;101694.00;5012908;27;99408;-63
2023/06/11 08:57:38;;;;;;;5.53;2.75;;;;;;;29.77;24.53;101689.31;5014621;27;101822;-63
2023/06/11 09:00:08;;;;;;;6.40;3.00;;;;;;;29.70;24.58;101689.09;5014728;27;98495;-64
2023/06/11 09:02:35;;;;;;;4.07;2.70;;;;;;;29.58;24.11;101679.44;5013011;27;98700;-63
2023/06/11 09:05:02;;;;;;;7.13;2.55;;;;;;;29.90;24.07;101692.50;5013060;27;102260;-62
2023/06/11 09:07:33;;;;;;;11.77;3.17;;;;;;;30.09;24.21;101697.81;5014221;27;98950;-63
2023/06/11 09:10:06;;;;;;;8.73;3.17;;;;;;;30.03;23.78;101699.28;5012856;27;99191;-63
2023/06/11 09:12:32;;;;;;;15.40;3.67;;;;;;;30.19;24.01;101695.84;5012379;27;98973;-64
2023/06/11 09:14:59;;;;;;;5.60;2.65;;;;;;;30.06;24.46;101698.97;5012419;27;98941;-63
2023/06/11 09:17:26;;;;;;;4.90;3.65;;;;;;;30.38;23.68;101679.28;5015401;27;99848;-63
2023/06/11 09:19:54;;;;;;;10.63;3.25;;;;;;;30.24;24.18;101676.28;5012268;27;100493;-64
2023/06/11 09:22:26;;;;;;;7.55;3.13;;;;;;;30.29;24.31;101682.97;5016729;27;98949;-64
2023/06/11 09:24:52;;;;;;;10.30;3.10;;;;;;;30.44;23.96;101672.34;5014053;27;100157;-63
2023/06/11 09:27:22;;;;;;;8.93;3.13;;;;;;;30.59;23.88;101669.91;5014515;27;97977;-63
2023/06/11 09:29:49;;;;;;;8.80;3.33;;;;;;;30.65;23.88;101675.56;5015519;27;98305;-64
2023/06/11 09:32:16;;;;;;;4.63;2.97;;;;;;;30.61;23.43;101681.47;5020293;27;97706;-63
2023/06/11 09:34:44;;;;;;;5.82;2.88;;;;;;;30.72;23.77;101675.78;5025274;27;100442;-63
2023/06/11 09:37:11;;;;;;;7.82;3.30;;;;;;;31.00;23.11;101676.38;5027206;27;99199;-64
2023/06/11 09:39:41;;;;;;;9.85;3.72;;;;;;;30.85;23.50;101671.53;5031894;27;97209;-63
2023/06/11 09:42:24;;;;;;;5.97;3.20;;;;;;;31.08;23.45;101676.44;5018435;27;97268;-65
2023/06/11 09:44:51;;;;;;;13.00;3.25;;;;;;;30.77;23.58;101679.72;5011133;27;99340;-63
2023/06/11 09:47:19;;;;;;;12.07;3.40;;;;;;;30.70;23.92;101673.19;5012934;27;99921;-66
2023/06/11 09:49:45;;;;;;;10.48;3.65;;;;;;;30.96;23.59;101670.41;5014426;27;98817;-67
2023/06/11 09:52:13;;;;;;;8.30;3.35;;;;;;;30.81;23.54;101669.31;5019733;27;98814;-67
2023/06/11 09:54:42;;;;;;;6.80;3.47;;;;;;;30.99;23.28;101661.00;5012932;27;99282;-67
2023/06/11 09:57:10;;;;;;;4.40;3.78;;;;;;;30.70;23.52;101659.56;5016436;27;99258;-68
2023/06/11 09:59:39;;;;;;;5.57;3.28;;;;;;;30.91;23.56;101669.19;5011657;27;97369;-67
2023/06/11 10:02:07;;;;;;;9.63;3.55;;;;;;;30.98;23.46;101664.78;5011841;27;98794;-67
2023/06/11 10:04:33;;;;;;;6.80;3.83;;;;;;;30.86;23.33;101667.78;5011296;27;101219;-67
2023/06/11 10:07:02;;;;;;;8.15;3.92;;;;;;;30.71;23.42;101671.31;5013040;27;99193;-66
2023/06/11 10:09:31;;;;;;;6.78;3.60;;;;;;;30.76;23.58;101671.69;5016836;27;99054;-67
2023/06/11 10:12:04;;;;;;;8.90;3.60;;;;;;;30.91;23.14;101664.59;5016125;27;96979;-62
2023/06/11 10:14:30;;;;;;;4.63;3.65;;;;;;;31.01;23.32;101665.31;5010337;27;99401;-67
2023/06/11 10:17:02;;;;;;;7.78;3.75;;;;;;;30.95;23.34;101668.69;5012384;27;99771;-70
2023/06/11 10:19:36;;;;;;;7.50;3.60;;;;;;;31.07;22.98;101659.22;5013430;27;97689;-68
2023/06/11 10:22:02;;;;;;;10.00;3.45;;;;;;;30.98;23.33;101649.28;5011017;27;98598;-68
2023/06/11 10:24:29;;;;;;;7.18;3.70;;;;;;;30.94;23.30;101656.06;5014577;27;101520;-68
2023/06/11 10:27:08;;;;;;;5.70;3.20;;;;;;;30.83;23.29;101649.03;5015116;27;99542;-68
2023/06/11 10:29:38;;;;;;;8.70;3.58;;;;;;;30.93;22.56;101650.75;5011134;27;97853;-67
2023/06/11 10:32:16;;;;;;;8.57;3.75;;;;;;;31.03;22.52;101649.63;5017737;27;99120;-67
2023/06/11 10:34:42;;;;;;;9.00;3.40;;;;;;;31.09;22.70;101640.81;5014478;27;99381;-67
2023/06/11 10:37:10;;;;;;;11.40;4.43;;;;;;;31.20;23.02;101648.66;5016944;27;99701;-70
2023/06/11 10:39:36;;;;;;;5.20;3.60;;;;;;;30.80;23.47;101648.50;5019526;27;98809;-68
2023/06/11 10:42:05;;;;;;;8.63;3.08;;;;;;;30.95;23.40;101641.41;5022884;27;97731;-68
2023/06/11 10:44:41;;;;;;;16.77;3.78;;;;;;;31.11;22.93;101640.66;5013452;27;99521;-68
2023/06/11 10:47:07;;;;;;;12.43;4.00;;;;;;;31.24;22.69;101636.38;5018127;27;99232;-67
2023/06/11 10:49:35;;;;;;;5.22;3.72;;;;;;;31.22;23.54;101643.91;5012622;27;97931;-68
2023/06/11 10:52:02;;;;;;;7.03;3.60;;;;;;;31.44;22.97;101634.19;5011261;27;98934;-68
2023/06/11 10:54:34;;;;;;;4.53;3.70;;;;;;;31.65;22.42;101641.94;5009429;27;99039;-68
2023/06/11 10:57:02;;;;;;;4.90;3.63;;;;;;;31.39;22.30;101643.94;5006544;27;99232;-70
2023/06/11 10:59:29;;;;;;;8.32;4.00;;;;;;;31.59;22.61;101642.59;5005950;27;98898;-68
2023/06/11 11:01:56;;;;;;;5.35;3.67;;;;;;;31.90;22.36;101640.91;5003802;27;98656;-68
2023/06/11 11:04:23;;;;;;;7.88;3.95;;;;;;;31.93;22.34;101640.59;5013690;27;99227;-68
2023/06/11 11:06:52;;;;;;;4.50;3.47;;;;;;;31.99;21.97;101639.88;5013810;27;98961;-69
2023/06/11 11:09:21;;;;;;;6.57;4.05;;;;;;;32.23;21.83;101641.75;5015287;27;97531;-69
2023/06/11 11:11:48;;;;;;;8.52;4.32;;;;;;;32.07;20.84;101647.22;5014143;27;97495;-68
2023/06/11 11:14:16;;;;;;;12.90;3.95;;;;;;;31.89;21.32;101650.16;5014575;27;98928;-68
2023/06/11 11:16:43;;;;;;;6.90;3.80;;;;;;;31.56;20.89;101643.81;5020205;27;99350;-69
2023/06/11 11:19:09;;;;;;;6.75;4.13;;;;;;;31.91;21.24;101639.03;5014857;27;98803;-69
2023/06/11 11:21:36;;;;;;;8.13;4.18;;;;;;;32.24;20.96;101639.88;5014426;27;98707;-69
2023/06/11 11:24:08;;;;;;;6.00;3.70;;;;;;;32.16;20.95;101623.50;5013720;27;99394;-68
2023/06/11 11:26:42;;;;;;;6.28;4.55;;;;;;;32.00;21.18;101629.81;5016600;27;98781;-68